Time;durP1;ratioP1;P1;durP2;ratioP2;P2;SDS_P1;SDS_P2;PMS_P1;PMS_P2;Temp;Humidity;BMP_temperature;BMP_pressure;BME280_temperature;BME280_humidity;BME280_pressure;Samples;Min_cycle;Max_cycle;Signal;HPM_P1;HPM_P2
2021/06/27 00:02:28;;;;;;;10.98;9.98;;;18.10;99.90;;;;;;5095190;28;20666;-74
2021/06/27 00:04:56;;;;;;;11.27;10.20;;;18.20;99.90;;;;;;5095222;28;20206;-73
2021/06/27 00:07:24;;;;;;;10.20;9.30;;;18.00;99.90;;;;;;5095101;28;20228;-73
2021/06/27 00:09:51;;;;;;;10.45;9.38;;;18.00;99.90;;;;;;5095241;28;20327;-72
2021/06/27 00:12:19;;;;;;;9.55;8.75;;;18.00;99.90;;;;;;5095195;28;20288;-73
2021/06/27 00:14:47;;;;;;;11.05;10.05;;;17.90;99.90;;;;;;5094782;28;20303;-73
2021/06/27 00:17:15;;;;;;;10.13;9.15;;;17.80;99.90;;;;;;5094653;28;20751;-73
2021/06/27 00:19:44;;;;;;;9.70;8.85;;;17.80;99.90;;;;;;5094917;28;20192;-73
2021/06/27 00:22:12;;;;;;;9.40;8.40;;;17.70;99.90;;;;;;5094788;28;20196;-73
2021/06/27 00:24:40;;;;;;;9.90;8.90;;;17.60;99.90;;;;;;5094745;28;20196;-73
2021/06/27 00:27:09;;;;;;;10.45;9.52;;;17.50;99.90;;;;;;5094740;28;20287;-74
2021/06/27 00:29:37;;;;;;;10.18;9.10;;;17.40;99.90;;;;;;5094538;28;20212;-73
2021/06/27 00:32:05;;;;;;;9.60;8.75;;;17.30;99.90;;;;;;5094589;28;20299;-74
2021/06/27 00:34:33;;;;;;;9.57;8.68;;;17.30;99.90;;;;;;5094383;28;20204;-73
2021/06/27 00:37:03;;;;;;;10.20;9.30;;;17.30;99.90;;;;;;5094148;28;20237;-72
2021/06/27 00:39:30;;;;;;;9.82;8.93;;;17.20;99.90;;;;;;5094725;28;20203;-74
2021/06/27 00:41:58;;;;;;;8.85;8.05;;;17.30;99.90;;;;;;5094460;28;20218;-72
2021/06/27 00:44:26;;;;;;;8.70;8.00;;;17.20;99.90;;;;;;5094148;28;20200;-74
2021/06/27 00:46:54;;;;;;;8.52;7.82;;;17.10;99.90;;;;;;5094424;28;20310;-72
2021/06/27 00:49:22;;;;;;;9.05;8.25;;;17.10;99.90;;;;;;5094365;28;20238;-72
2021/06/27 00:51:50;;;;;;;8.50;7.78;;;17.10;99.90;;;;;;5094087;28;20200;-75
2021/06/27 00:54:19;;;;;;;8.90;8.10;;;17.10;99.90;;;;;;5094271;28;20283;-74
2021/06/27 00:56:47;;;;;;;8.73;7.97;;;17.10;99.90;;;;;;5093957;28;20295;-73
2021/06/27 00:59:15;;;;;;;8.93;8.20;;;17.10;99.90;;;;;;5093856;28;20204;-72
2021/06/27 01:01:43;;;;;;;8.70;7.95;;;17.10;99.90;;;;;;5094197;28;20290;-73
2021/06/27 01:04:11;;;;;;;9.25;8.38;;;17.10;99.90;;;;;;5093966;28;20253;-73
2021/06/27 01:06:39;;;;;;;8.73;7.85;;;17.10;99.90;;;;;;5094034;28;20227;-73
2021/06/27 01:09:07;;;;;;;9.40;8.57;;;17.10;99.90;;;;;;5091806;28;20195;-73
2021/06/27 01:11:36;;;;;;;8.98;8.18;;;17.10;99.90;;;;;;5093284;28;20219;-73
2021/06/27 01:14:04;;;;;;;8.80;8.00;;;17.10;99.90;;;;;;5093963;28;20200;-72
2021/06/27 01:16:32;;;;;;;8.70;7.90;;;17.10;99.90;;;;;;5093698;28;20319;-74
2021/06/27 01:19:00;;;;;;;8.75;7.95;;;17.10;99.90;;;;;;5093809;28;20211;-73
2021/06/27 01:21:29;;;;;;;8.70;7.90;;;17.30;99.90;;;;;;5093624;28;20200;-73
2021/06/27 01:23:57;;;;;;;8.15;7.45;;;17.10;99.90;;;;;;5093618;28;20287;-72
2021/06/27 01:26:25;;;;;;;9.23;8.43;;;17.00;99.90;;;;;;5093948;28;20282;-74
2021/06/27 01:28:54;;;;;;;8.57;7.85;;;17.00;99.90;;;;;;5093254;28;20210;-74
2021/06/27 01:31:21;;;;;;;9.75;8.85;;;17.00;99.90;;;;;;5093507;28;20226;-73
2021/06/27 01:33:50;;;;;;;8.90;8.18;;;16.90;99.90;;;;;;5093502;28;20203;-72
2021/06/27 01:36:18;;;;;;;9.07;8.25;;;16.90;99.90;;;;;;5093067;28;20295;-73
2021/06/27 01:38:47;;;;;;;9.00;8.20;;;17.00;99.90;;;;;;5093489;28;20204;-73
2021/06/27 01:41:15;;;;;;;8.98;8.18;;;17.00;99.90;;;;;;5093125;28;20196;-74
2021/06/27 01:43:42;;;;;;;8.98;7.80;;;17.00;99.90;;;;;;5093304;28;20671;-74
2021/06/27 01:46:10;;;;;;;8.80;8.00;;;17.00;99.90;;;;;;5093230;28;20389;-73
2021/06/27 01:48:38;;;;;;;8.75;7.93;;;17.00;99.90;;;;;;5093238;28;20632;-72
2021/06/27 01:51:07;;;;;;;8.80;8.00;;;16.90;99.90;;;;;;5093133;28;20201;-73
2021/06/27 01:53:38;;;;;;;8.40;7.70;;;16.90;99.90;;;;;;5093239;28;20239;-74
2021/06/27 01:56:08;;;;;;;7.85;7.15;;;16.90;99.90;;;;;;5093198;28;20180;-73
2021/06/27 01:58:38;;;;;;;8.32;7.53;;;16.90;99.90;;;;;;5091060;28;20216;-71
2021/06/27 02:01:08;;;;;;;8.65;7.85;;;16.90;99.90;;;;;;5092551;28;20212;-65
2021/06/27 02:03:37;;;;;;;9.10;8.30;;;16.90;99.90;;;;;;5093178;28;20200;-68
2021/06/27 02:06:06;;;;;;;8.75;7.93;;;16.90;99.90;;;;;;5082693;28;20304;-65
2021/06/27 02:08:36;;;;;;;8.02;7.32;;;16.90;99.90;;;;;;5072829;28;20197;-64
2021/06/27 02:11:05;;;;;;;8.82;7.78;;;17.00;99.90;;;;;;5072045;28;20213;-67
2021/06/27 02:13:35;;;;;;;8.00;7.13;;;17.00;99.90;;;;;;5072714;28;20284;-64
2021/06/27 02:16:03;;;;;;;8.13;7.43;;;17.00;99.90;;;;;;5072543;28;20197;-66
2021/06/27 02:18:34;;;;;;;8.70;7.93;;;16.90;99.90;;;;;;5072667;28;20204;-66
2021/06/27 02:21:05;;;;;;;8.02;7.35;;;16.90;99.90;;;;;;5072276;28;20183;-65
2021/06/27 02:23:33;;;;;;;8.35;7.65;;;16.80;99.90;;;;;;5072641;28;20191;-66
2021/06/27 02:26:02;;;;;;;9.93;7.93;;;16.80;99.90;;;;;;5072561;28;20215;-66
2021/06/27 02:28:30;;;;;;;8.60;7.80;;;16.90;99.90;;;;;;5088770;28;20204;-65
2021/06/27 02:31:00;;;;;;;8.13;7.43;;;16.90;99.90;;;;;;5092575;28;20251;-64
2021/06/27 02:33:28;;;;;;;8.85;8.05;;;16.80;99.90;;;;;;5092831;28;20652;-66
2021/06/27 02:35:57;;;;;;;9.02;8.23;;;16.70;99.90;;;;;;5092504;28;20199;-65
2021/06/27 02:38:26;;;;;;;9.07;8.27;;;16.60;99.90;;;;;;5092430;28;20196;-66
2021/06/27 02:40:54;;;;;;;8.48;7.78;;;16.60;99.90;;;;;;5092359;28;20658;-65
2021/06/27 02:43:23;;;;;;;9.38;8.50;;;16.50;99.90;;;;;;5092599;28;20668;-65
2021/06/27 02:45:51;;;;;;;8.65;7.85;;;16.50;99.90;;;;;;5091942;28;20656;-66
2021/06/27 02:48:21;;;;;;;9.10;8.35;;;16.50;99.90;;;;;;5092532;28;20286;-65
2021/06/27 02:50:49;;;;;;;9.38;8.48;;;16.50;99.90;;;;;;5092378;28;20259;-65
2021/06/27 02:53:17;;;;;;;10.07;8.98;;;16.60;99.90;;;;;;5092510;28;20295;-65
2021/06/27 02:55:45;;;;;;;9.45;8.50;;;16.50;99.90;;;;;;5092380;28;20204;-64
2021/06/27 02:58:13;;;;;;;9.23;8.43;;;16.60;99.90;;;;;;5092450;28;20196;-65
2021/06/27 03:00:41;;;;;;;9.57;8.68;;;16.40;99.90;;;;;;5092385;28;20203;-64
2021/06/27 03:03:09;;;;;;;9.60;8.70;;;16.40;99.90;;;;;;5092345;28;20200;-64
2021/06/27 03:05:38;;;;;;;9.48;8.55;;;16.40;99.90;;;;;;5092362;28;20291;-66
2021/06/27 03:08:06;;;;;;;10.35;9.35;;;16.30;99.90;;;;;;5092276;28;20719;-65
2021/06/27 03:10:34;;;;;;;10.15;9.25;;;16.30;99.90;;;;;;5092082;28;20206;-65
2021/06/27 03:13:02;;;;;;;9.80;8.90;;;16.30;99.90;;;;;;5092401;28;20228;-65
2021/06/27 03:15:30;;;;;;;9.00;8.20;;;16.20;99.90;;;;;;5092129;28;20200;-65
2021/06/27 03:17:58;;;;;;;10.10;9.20;;;16.20;99.90;;;;;;5091983;28;20204;-65
2021/06/27 03:20:26;;;;;;;10.07;9.15;;;16.10;99.90;;;;;;5092102;28;20652;-64
2021/06/27 03:22:55;;;;;;;9.68;8.77;;;16.10;99.90;;;;;;5094449;28;20297;-63
2021/06/27 03:25:25;;;;;;;9.52;8.63;;;16.10;99.90;;;;;;5095694;28;20206;-66
2021/06/27 03:27:54;;;;;;;10.70;9.70;;;16.10;99.90;;;;;;5095762;28;20636;-64
2021/06/27 03:30:23;;;;;;;11.35;10.15;;;16.10;99.90;;;;;;5096419;28;20200;-64
2021/06/27 03:32:51;;;;;;;11.05;9.95;;;16.20;99.90;;;;;;5100219;28;20306;-65
2021/06/27 03:35:18;;;;;;;10.88;9.88;;;16.20;99.90;;;;;;5099459;28;20417;-66
2021/06/27 03:37:52;;;;;;;10.27;9.20;;;16.30;99.90;;;;;;5096180;28;20631;-65
2021/06/27 03:40:22;;;;;;;10.40;9.50;;;16.30;99.90;;;;;;5095739;28;20180;-66
2021/06/27 03:42:51;;;;;;;9.75;8.95;;;16.30;99.90;;;;;;5095717;28;20180;-64
2021/06/27 03:45:19;;;;;;;10.68;9.68;;;16.30;99.90;;;;;;5095396;28;20206;-65
2021/06/27 03:47:48;;;;;;;10.68;9.68;;;16.40;99.90;;;;;;5095498;28;20200;-66
2021/06/27 03:50:18;;;;;;;10.45;9.45;;;16.60;99.90;;;;;;5094938;28;20696;-65
2021/06/27 03:52:46;;;;;;;11.52;8.98;;;16.60;99.90;;;;;;5095272;28;20319;-64
2021/06/27 03:55:14;;;;;;;10.00;9.00;;;16.50;99.90;;;;;;5095350;28;20200;-65
2021/06/27 03:57:44;;;;;;;10.93;9.95;;;16.70;99.90;;;;;;5095328;28;20211;-65
2021/06/27 04:00:13;;;;;;;10.48;9.20;;;16.70;99.90;;;;;;5094774;28;20792;-64
2021/06/27 04:02:40;;;;;;;9.90;8.95;;;16.70;99.90;;;;;;5095131;28;20196;-65
2021/06/27 04:05:10;;;;;;;10.23;9.10;;;16.80;99.90;;;;;;5094964;28;20659;-64
2021/06/27 04:07:38;;;;;;;10.55;9.65;;;16.80;99.90;;;;;;5094935;28;20200;-66
2021/06/27 04:10:06;;;;;;;10.18;9.18;;;16.80;99.90;;;;;;5095053;28;20207;-64
2021/06/27 04:12:34;;;;;;;9.98;9.07;;;16.80;99.90;;;;;;5095100;28;20307;-65
2021/06/27 04:15:05;;;;;;;9.13;8.23;;;16.80;99.90;;;;;;5094836;28;20200;-64
2021/06/27 04:17:33;;;;;;;9.57;8.52;;;16.80;99.90;;;;;;5094847;28;20188;-65
2021/06/27 04:20:01;;;;;;;9.73;8.60;;;16.80;99.90;;;;;;5094872;28;20201;-66
2021/06/27 04:22:28;;;;;;;8.90;8.10;;;16.80;99.90;;;;;;5094880;28;20283;-66
2021/06/27 04:24:56;;;;;;;9.68;8.63;;;16.90;99.90;;;;;;5094504;28;20202;-66
2021/06/27 04:27:24;;;;;;;9.90;8.90;;;16.90;99.90;;;;;;5094778;28;20200;-66
2021/06/27 04:29:52;;;;;;;9.50;8.60;;;16.90;99.90;;;;;;5094472;28;20660;-66
2021/06/27 04:32:21;;;;;;;10.23;8.68;;;17.00;99.90;;;;;;5094671;28;20319;-66
2021/06/27 04:34:49;;;;;;;8.30;7.60;;;17.00;99.90;;;;;;5093611;28;20668;-65
2021/06/27 04:37:17;;;;;;;8.25;7.55;;;17.10;99.90;;;;;;5094457;28;20202;-66
2021/06/27 04:39:45;;;;;;;8.70;7.90;;;17.10;99.90;;;;;;5094641;28;20210;-65
2021/06/27 04:42:13;;;;;;;9.77;8.77;;;17.20;99.90;;;;;;5094585;28;20223;-66
2021/06/27 04:44:40;;;;;;;8.88;7.95;;;17.40;99.90;;;;;;5093954;28;20207;-66
2021/06/27 04:47:09;;;;;;;8.35;7.65;;;17.50;99.90;;;;;;5094679;28;20295;-65
2021/06/27 04:49:40;;;;;;;9.35;8.05;;;17.70;99.90;;;;;;5094160;28;20335;-65
2021/06/27 04:52:09;;;;;;;9.45;8.32;;;17.80;99.90;;;;;;5093927;28;20205;-64
2021/06/27 04:54:37;;;;;;;7.78;7.07;;;18.20;99.90;;;;;;5094000;28;20232;-65
2021/06/27 04:57:07;;;;;;;7.43;6.47;;;19.40;99.90;;;;;;5094135;28;20223;-66
2021/06/27 04:59:34;;;;;;;6.47;5.88;;;21.00;99.90;;;;;;5093642;28;20204;-66
2021/06/27 05:02:02;;;;;;;8.23;6.75;;;;;;;;;;5093910;28;20233;-65
2021/06/27 05:04:31;;;;;;;7.65;6.88;;;;;;;;;;5093960;28;20200;-67
2021/06/27 05:07:00;;;;;;;6.72;6.03;;;;;;;;;;5093552;28;20200;-67
2021/06/27 05:09:28;;;;;;;6.32;5.72;;;25.90;99.90;;;;;;5093691;28;20203;-65
2021/06/27 05:11:56;;;;;;;7.43;6.72;;;26.40;99.90;;;;;;5094078;28;20219;-66
2021/06/27 05:14:24;;;;;;;6.72;6.20;;;26.60;99.90;;;;;;5093451;28;20212;-66
2021/06/27 05:16:51;;;;;;;6.82;6.15;;;26.70;99.90;;;;;;5093824;28;20298;-65
2021/06/27 05:19:19;;;;;;;6.97;6.03;;;27.40;99.90;;;;;;5093763;28;20652;-67
2021/06/27 05:21:47;;;;;;;7.40;6.80;;;27.30;99.90;;;;;;5093547;28;20554;-65
2021/06/27 05:24:18;;;;;;;7.55;6.95;;;27.70;99.90;;;;;;5093572;28;20202;-66
2021/06/27 05:26:46;;;;;;;7.45;6.78;;;27.60;99.90;;;;;;5093661;28;20190;-66
2021/06/27 05:29:14;;;;;;;6.80;6.30;;;;;;;;;;5093528;28;20295;-65
2021/06/27 05:31:43;;;;;;;8.02;7.32;;;;;;;;;;5093467;28;20294;-67
2021/06/27 05:34:11;;;;;;;7.25;6.60;;;;;;;;;;5093302;28;20208;-66
2021/06/27 05:36:39;;;;;;;7.72;7.07;;;;;;;;;;5093359;28;20283;-66
2021/06/27 05:39:08;;;;;;;7.18;6.57;;;;;;;;;;5093404;28;20196;-67
2021/06/27 05:41:38;;;;;;;9.20;7.25;;;;;;;;;;5093343;28;20299;-65
2021/06/27 05:44:07;;;;;;;8.18;7.47;;;;;;;;;;5093226;28;20180;-67
2021/06/27 05:46:36;;;;;;;7.95;7.22;;;;;;;;;;5092308;28;20629;-65
2021/06/27 05:49:05;;;;;;;8.55;7.75;;;;;;;;;;5092845;28;20692;-65
2021/06/27 05:51:36;;;;;;;9.23;8.43;;;;;;;;;;5093089;28;20200;-65
2021/06/27 05:54:05;;;;;;;9.57;8.77;;;;;;;;;;5092768;28;20737;-64
2021/06/27 05:56:33;;;;;;;8.85;8.05;;;;;;;;;;5093121;28;20233;-66
2021/06/27 05:59:03;;;;;;;9.00;8.10;;;;;;;;;;5092799;28;20200;-67
2021/06/27 06:01:31;;;;;;;8.45;7.72;;;;;;;;;;5092876;28;20204;-67
2021/06/27 06:03:59;;;;;;;8.70;7.88;;;;;;;;;;5093197;28;20200;-66
2021/06/27 06:06:28;;;;;;;7.78;7.00;;;;;;;;;;5092737;28;20648;-65
2021/06/27 06:08:56;;;;;;;8.35;7.65;;;;;;;;;;5092856;28;20742;-66
2021/06/27 06:11:26;;;;;;;7.93;7.32;;;;;;;;;;5092688;28;20294;-67
2021/06/27 06:13:55;;;;;;;8.73;7.93;;;;;;;;;;5093267;28;20245;-66
2021/06/27 06:16:25;;;;;;;8.73;7.85;;;;;;;;;;5093315;28;20561;-66
2021/06/27 06:18:53;;;;;;;8.45;7.75;;;;;;;;;;5092924;28;20231;-66
2021/06/27 06:21:21;;;;;;;7.93;7.22;;;;;;;;;;5092372;28;20734;-65
2021/06/27 06:23:50;;;;;;;10.43;8.23;;;;;;;;;;5092575;28;20192;-65
2021/06/27 06:26:18;;;;;;;7.75;7.07;;;;;;;;;;5092792;28;20283;-66
2021/06/27 06:28:46;;;;;;;8.65;7.95;;;;;;;;;;5092543;28;20295;-66
2021/06/27 06:31:14;;;;;;;8.55;7.85;;;;;;;;;;5092636;28;20200;-66
2021/06/27 06:33:44;;;;;;;7.80;7.20;;;;;;;;;;5092068;28;20326;-66
2021/06/27 06:36:12;;;;;;;8.65;7.85;;;;;;;;;;5081693;28;20191;-65
2021/06/27 06:38:40;;;;;;;8.50;7.60;;;;;;;;;;5072359;28;20200;-66
2021/06/27 06:41:08;;;;;;;8.50;7.80;;;;;;;;;;5072146;28;20201;-64
2021/06/27 06:43:37;;;;;;;8.82;8.02;;;;;;;;;;5072186;28;20197;-66
2021/06/27 06:46:05;;;;;;;8.30;7.53;;;;;;;;;;5071273;28;20208;-68
2021/06/27 06:48:33;;;;;;;8.82;8.13;;;;;;;;;;5071708;28;20220;-66
2021/06/27 06:51:03;;;;;;;8.52;7.82;;;;;;;;;;5072405;28;20291;-67
2021/06/27 06:53:31;;;;;;;8.25;7.45;;;;;;;;;;5072146;28;20234;-66
2021/06/27 06:55:59;;;;;;;8.98;8.27;;;;;;;;;;5072170;28;20197;-65
2021/06/27 06:58:29;;;;;;;8.45;7.65;;;;;;;;;;5075565;28;20201;-66
2021/06/27 07:00:58;;;;;;;9.27;8.48;;;;;;;;;;5076078;28;20224;-66
2021/06/27 07:03:27;;;;;;;7.40;6.80;;;;;;;;;;5076149;28;20203;-65
2021/06/27 07:05:55;;;;;;;8.68;7.97;;;;;;;;;;5076070;28;20206;-65
2021/06/27 07:08:24;;;;;;;8.48;7.80;;;;;;;;;;5075314;28;20204;-66
2021/06/27 07:10:52;;;;;;;8.68;7.93;;;;;;;;;;5075581;28;20204;-66
2021/06/27 07:13:21;;;;;;;8.45;7.72;;;;;;;;;;5076226;28;20226;-64
2021/06/27 07:15:49;;;;;;;8.13;7.43;;;;;;;;;;5075646;28;20204;-65
2021/06/27 07:18:20;;;;;;;7.68;6.97;;;;;;;;;;5075700;28;20189;-65
2021/06/27 07:20:48;;;;;;;8.43;7.15;;;;;;;;;;5075887;28;20212;-66
2021/06/27 07:23:16;;;;;;;7.95;7.25;;;;;;;;;;5075578;28;20315;-65
2021/06/27 07:25:46;;;;;;;7.95;7.35;;;;;;;;;;5075594;28;20207;-64
2021/06/27 07:28:14;;;;;;;7.75;7.13;;;;;;;;;;5089371;28;20204;-66
2021/06/27 07:30:42;;;;;;;7.10;6.50;;;;;;;;;;5095869;28;20204;-66
2021/06/27 07:33:14;;;;;;;7.45;6.85;;;;;;;;;;5095483;28;20247;-64
2021/06/27 07:35:43;;;;;;;6.63;6.13;;;;;;;;;;5095736;28;20185;-65
2021/06/27 07:38:11;;;;;;;6.72;6.20;;;;;;;;;;5086752;28;20276;-65
2021/06/27 07:40:40;;;;;;;6.57;5.97;;;;;;;;;;5095829;28;20200;-65
2021/06/27 07:43:09;;;;;;;6.43;5.95;;;;;;;;;;5095487;28;20555;-66
2021/06/27 07:45:38;;;;;;;6.22;5.43;;;;;;;;;;5095318;28;20196;-64
2021/06/27 07:48:06;;;;;;;6.78;6.28;;;;;;;;;;5095327;28;20538;-65
2021/06/27 07:50:34;;;;;;;6.40;5.90;;;;;;;;;;5095345;28;20581;-63
2021/06/27 07:53:04;;;;;;;6.68;6.07;;;;;;;;;;5095316;28;20207;-65
2021/06/27 07:55:34;;;;;;;6.32;5.40;;;;;;;;;;5095053;28;20334;-68
2021/06/27 07:58:03;;;;;;;6.53;5.95;;;;;;;;;;5095740;28;20195;-66
2021/06/27 08:00:33;;;;;;;7.30;6.60;;;;;;;;;;5097824;28;20199;-66
2021/06/27 08:03:02;;;;;;;7.20;6.50;;;;;;;;;;5098684;28;20188;-67
2021/06/27 08:05:34;;;;;;;6.80;6.28;;;;;;;;;;5093147;28;21645;-69
2021/06/27 08:08:03;;;;;;;6.15;5.65;;;;;;;;;;5091913;28;20629;-69
2021/06/27 08:10:32;;;;;;;6.43;5.82;;;;;;;;;;5094786;28;20204;-69
2021/06/27 08:13:00;;;;;;;6.78;6.18;;;;;;;;;;5094865;28;20228;-69
2021/06/27 08:15:29;;;;;;;6.45;5.95;;;;;;;;;;5094528;28;20285;-64
2021/06/27 08:17:59;;;;;;;6.90;6.30;;;;;;;;;;5094781;28;20283;-66
2021/06/27 08:20:27;;;;;;;6.55;5.95;;;;;;;;;;5094761;28;20196;-65
2021/06/27 08:22:55;;;;;;;6.32;5.82;;;;;;;;;;5094154;28;20743;-66
2021/06/27 08:25:24;;;;;;;6.30;5.70;;;;;;;;;;5094447;28;20204;-65
2021/06/27 08:27:52;;;;;;;6.15;5.75;;;;;;;;;;5094621;28;20388;-64
2021/06/27 08:30:22;;;;;;;6.45;5.85;;;;;;;;;;5094320;28;20212;-66
2021/06/27 08:32:51;;;;;;;5.57;5.05;;;;;;;;;;5094904;28;20200;-65
2021/06/27 08:35:21;;;;;;;5.78;5.28;;;;;;;;;;5094032;28;20226;-66
2021/06/27 08:37:50;;;;;;;4.85;4.45;;;;;;;;;;5094033;28;20684;-66
2021/06/27 08:40:20;;;;;;;5.07;4.68;;;;;;;;;;5094226;28;20295;-65
2021/06/27 08:42:48;;;;;;;5.88;5.38;;;;;;;;;;5094367;28;20292;-62
2021/06/27 08:45:17;;;;;;;5.47;5.05;;;;;;;;;;5093773;28;20196;-66
2021/06/27 08:47:47;;;;;;;5.82;4.57;;;;;;;;;;5094018;28;20204;-66
2021/06/27 08:50:17;;;;;;;5.55;5.07;;;;;;;;;;5089502;28;20479;-69
2021/06/27 08:52:47;;;;;;;3.85;3.55;;;;;;;;;;5091330;28;20295;-69
2021/06/27 08:55:16;;;;;;;4.80;4.32;;;;;;;;;;5093985;28;20266;-68
2021/06/27 08:57:44;;;;;;;5.70;5.10;;;;;;;;;;5094072;28;20204;-70
2021/06/27 09:00:13;;;;;;;5.45;4.93;;;;;;;;;;5093652;28;20200;-69
2021/06/27 09:02:41;;;;;;;5.55;5.15;;;;;;;;;;5093768;28;20672;-69
2021/06/27 09:05:10;;;;;;;5.60;5.10;;;;;;;;;;5093777;28;20196;-69
2021/06/27 09:07:39;;;;;;;5.30;4.80;;;;;;;;;;5093211;28;20680;-68
2021/06/27 09:10:10;;;;;;;5.97;5.47;;;;;;;;;;5093656;28;20294;-68
2021/06/27 09:12:46;;;;;;;5.30;4.90;;;;;;;;;;5093515;28;20542;-65
2021/06/27 09:15:15;;;;;;;5.57;5.18;;;;;;;;;;5093493;28;20228;-66
2021/06/27 09:17:45;;;;;;;5.30;4.90;;;;;;;;;;5093506;28;20552;-67
2021/06/27 09:20:13;;;;;;;5.68;5.15;;;;;;;;;;5093470;28;20295;-69
2021/06/27 09:22:42;;;;;;;5.65;5.15;;;;;;;;;;5093187;28;20216;-73
2021/06/27 09:25:16;;;;;;;5.38;4.97;;;;;;;;;;5086227;28;20803;-62
2021/06/27 09:27:45;;;;;;;4.72;4.32;;;;;;;;;;5093196;28;20215;-62
2021/06/27 09:30:17;;;;;;;5.43;5.03;;;;;;;;;;5092988;28;20648;-62
2021/06/27 09:32:52;;;;;;;4.95;4.55;;;;;;;;;;5093309;28;20334;-70
2021/06/27 09:35:50;;;;;;;5.50;5.10;;;;;;;;;;5093199;28;20313;-68
2021/06/27 09:38:43;;;;;;;5.57;5.07;;;;;;;;;;5030158;28;20661;-65
2021/06/27 09:41:18;;;;;;;5.35;4.68;;;;;;;;;;5075429;28;20504;-64
2021/06/27 09:43:50;;;;;;;4.75;4.40;;;;;;;;;;5092866;28;20669;-65
2021/06/27 09:46:18;;;;;;;4.80;4.40;;;;;;;;;;5092734;28;20679;-67
2021/06/27 09:48:51;;;;;;;4.95;4.45;;;;;;;;;;5092724;28;20195;-66
2021/06/27 09:51:20;;;;;;;4.10;3.78;;;;;;;;;;5092871;28;20656;-67
2021/06/27 09:53:48;;;;;;;4.88;4.47;;;;;;;;;;5092797;28;20202;-64
2021/06/27 09:56:18;;;;;;;4.40;4.10;;;;;;;;;;5092906;28;20218;-68
2021/06/27 09:58:57;;;;;;;4.57;4.28;;;;;;;;;;5092633;28;20628;-63
2021/06/27 10:01:26;;;;;;;4.28;3.95;;;;;;;;;;5092895;28;20232;-67
2021/06/27 10:03:55;;;;;;;4.35;4.05;;;;;;;;;;5093069;28;20292;-72
2021/06/27 10:06:25;;;;;;;4.85;4.47;;;;;;;;;;5092572;28;20246;-62
2021/06/27 10:08:53;;;;;;;4.40;4.05;;;;;;;;;;5092465;28;20642;-69
2021/06/27 10:11:24;;;;;;;4.18;3.88;;;;;;;;;;5092775;28;20227;-70
2021/06/27 10:13:53;;;;;;;4.60;4.20;;;;;;;;;;5092668;28;20224;-64
2021/06/27 10:16:24;;;;;;;4.53;4.20;;;;;;;;;;5092132;28;20573;-70
2021/06/27 10:18:53;;;;;;;4.22;3.83;;;;;;;;;;5092784;28;20207;-72
2021/06/27 10:21:21;;;;;;;4.40;4.10;;;;;;;;;;5092875;28;20195;-74
2021/06/27 10:23:50;;;;;;;4.45;4.15;;;;;;;;;;5092388;28;20516;-75
2021/06/27 10:26:20;;;;;;;4.10;3.80;;;;;;;;;;5092556;28;20200;-76
2021/06/27 10:28:50;;;;;;;4.35;3.95;;;;;;;;;;5092652;28;20231;-74
2021/06/27 10:31:19;;;;;;;5.38;4.18;;;;;;;;;;5093357;28;20206;-76
2021/06/27 10:33:47;;;;;;;4.57;4.28;;;;;;;;;;5097484;28;20268;-74
2021/06/27 10:36:20;;;;;;;5.40;4.90;;;;;;;;;;5096925;28;20238;-74
2021/06/27 10:38:49;;;;;;;4.43;4.03;;;;;;;;;;5097120;28;20268;-75
2021/06/27 10:41:18;;;;;;;4.45;4.10;;;;;;;;;;5097042;28;20239;-74
2021/06/27 10:44:04;;;;;;;4.53;4.20;;;;;;;;;;5096591;28;20294;-69
2021/06/27 10:46:36;;;;;;;3.95;3.65;;;;;;;;;;5096544;28;20190;-69
2021/06/27 10:49:05;;;;;;;4.28;3.97;;;;;;;;;;5096278;28;20703;-67
2021/06/27 10:51:57;;;;;;;4.40;4.00;;;;;;;;;;5096518;28;20283;-65
2021/06/27 10:54:25;;;;;;;4.22;3.92;;;;;;;;;;5096516;28;20188;-64
2021/06/27 10:56:55;;;;;;;4.97;4.00;;;;;;;;;;5096128;28;20692;-69
2021/06/27 10:59:44;;;;;;;4.05;3.75;;;;;;;;;;5096476;28;20204;-69
2021/06/27 11:02:16;;;;;;;4.18;3.78;;;;;;;;;;5096227;28;20210;-67
2021/06/27 11:04:45;;;;;;;4.00;3.70;;;;;;;;;;5095983;28;20679;-74
2021/06/27 11:07:35;;;;;;;3.60;3.40;;;;;;;;;;5095850;28;20629;-74
2021/06/27 11:10:18;;;;;;;3.78;3.47;;;;;;;;;;5071189;28;20590;-70
2021/06/27 11:13:06;;;;;;;3.60;3.35;;;;;;;;;;5095836;28;20361;-71
2021/06/27 11:15:36;;;;;;;3.40;3.20;;;;;;;;;;5084066;28;20766;-71
2021/06/27 11:18:08;;;;;;;3.20;3.00;;;;;;;;;;5095853;28;20609;-68
2021/06/27 11:20:37;;;;;;;3.80;3.50;;;;;;;;;;5095718;28;20286;-66
2021/06/27 11:23:05;;;;;;;3.42;3.22;;;;;;;;;;5095409;28;20646;-67
2021/06/27 11:25:34;;;;;;;3.40;3.15;;;;;;;;;;5095743;28;20311;-68
2021/06/27 11:28:18;;;;;;;3.95;3.60;;;;;;;;;;5095922;28;20597;-69
2021/06/27 11:31:20;;;;;;;3.92;3.63;;;;;;;;;;5095587;28;20200;-67
2021/06/27 11:34:10;;;;;;;4.30;4.00;;;;;;;;;;5095224;28;20582;-69
2021/06/27 11:36:38;;;;;;;4.00;3.60;;;;;;;;;;5095075;28;20223;-67
2021/06/27 11:39:06;;;;;;;3.80;3.50;;;;;;;;;;5094941;28;20672;-68
2021/06/27 11:41:38;;;;;;;5.22;3.45;;;;;;;;;;5095222;28;20683;-67
2021/06/27 11:44:08;;;;;;;4.00;3.70;;;;;;;;;;5095359;28;20204;-66
2021/06/27 11:46:37;;;;;;;3.42;3.13;;;;;;;;;;5095352;28;20291;-62
2021/06/27 11:49:08;;;;;;;3.78;3.47;;;;;;;;;;5095131;28;20259;-62
2021/06/27 11:51:38;;;;;;;3.70;3.40;;;;;;;;;;5095024;28;20190;-68
2021/06/27 11:54:07;;;;;;;3.50;3.20;;;;;;;;;;5095138;28;20200;-68
2021/06/27 11:56:53;;;;;;;3.83;3.53;;;;;;;;;;5095037;28;20226;-63
2021/06/27 11:59:25;;;;;;;3.47;3.28;;;;;;;;;;5095152;28;20287;-70
2021/06/27 12:02:09;;;;;;;3.67;3.30;;;;;;;;;;5095367;28;20184;-68
2021/06/27 12:04:40;;;;;;;3.40;3.10;;;;;;;;;;5094983;28;20200;-64
2021/06/27 12:07:31;;;;;;;3.30;3.00;;;;;;;;;;5094547;28;20184;-67
2021/06/27 12:10:00;;;;;;;4.50;3.33;;;;;;;;;;5075360;28;20193;-68
2021/06/27 12:12:38;;;;;;;3.20;3.00;;;;;;;;;;5074589;28;20243;-70
2021/06/27 12:15:08;;;;;;;3.78;3.47;;;;;;;;;;5074682;28;20279;-69
2021/06/27 12:17:36;;;;;;;3.40;3.10;;;;;;;;;;5074819;28;20256;-68
2021/06/27 12:20:07;;;;;;;3.50;3.20;;;;;;;;;;5074902;28;20201;-68
2021/06/27 12:22:48;;;;;;;3.25;3.05;;;;;;;;;;5074673;28;20193;-67
2021/06/27 12:25:16;;;;;;;3.30;3.10;;;;;;;;;;5074461;28;20839;-67
2021/06/27 12:27:48;;;;;;;3.42;3.20;;;;;;;;;;5074461;28;20232;-68
2021/06/27 12:30:17;;;;;;;3.22;3.03;;;;;;;;;;5074510;28;20729;-69
2021/06/27 12:33:01;;;;;;;3.75;3.45;;;;;;;;;;5074516;28;20240;-67
2021/06/27 12:35:32;;;;;;;3.60;3.30;;;;;;;;;;5077506;28;20881;-68
2021/06/27 12:38:01;;;;;;;3.10;2.90;;;;;;;;;;5077179;28;20595;-67
2021/06/27 12:40:29;;;;;;;3.25;2.95;;;;;;;;;;5076008;28;20640;-67
2021/06/27 12:42:58;;;;;;;3.22;2.97;;;;;;;;;;5074932;28;20203;-68
2021/06/27 12:45:27;;;;;;;3.30;3.10;;;;;;;;;;5074229;28;20299;-67
2021/06/27 12:47:57;;;;;;;3.03;2.83;;;;;;;;;;5074259;28;20289;-67
2021/06/27 12:50:39;;;;;;;3.33;3.03;;;;;;;;;;5073986;28;20684;-67
2021/06/27 12:53:08;;;;;;;3.15;2.85;;;;;;;;;;5073737;28;20751;-67
2021/06/27 12:55:36;;;;;;;3.45;3.15;;;;;;;;;;5073416;28;20207;-68
2021/06/27 12:58:05;;;;;;;3.38;3.08;;;;;;;;;;5073882;28;20266;-67
2021/06/27 13:00:34;;;;;;;3.20;3.00;;;;;;;;;;5088072;28;20721;-68
2021/06/27 13:03:16;;;;;;;2.95;2.75;;;;;;;;;;5094071;28;20208;-68
2021/06/27 13:05:59;;;;;;;2.90;2.70;;;;;;;;;;5094099;28;20203;-68
2021/06/27 13:08:27;;;;;;;2.90;2.70;;;;;;;;;;5093944;28;20186;-66
2021/06/27 13:11:07;;;;;;;2.58;2.38;;;;;;;;;;5094028;28;20200;-64
2021/06/27 13:13:36;;;;;;;2.88;2.50;;;;;;;;;;5093810;28;20187;-65
2021/06/27 13:16:14;;;;;;;2.20;2.03;;;;;;;;;;5086829;28;20731;-68
2021/06/27 13:18:42;;;;;;;2.60;2.40;;;;;;;;;;5072576;28;20657;-69
2021/06/27 13:21:21;;;;;;;2.45;2.33;;;;;;;;;;5072987;28;20226;-69
2021/06/27 13:24:03;;;;;;;2.30;2.20;;;;;;;;;;5073231;28;20181;-70
2021/06/27 13:26:37;;;;;;;2.60;2.40;;;;;;;;;;5088349;28;20279;-66
2021/06/27 13:29:06;;;;;;;2.70;2.50;;;;;;;;;;5093268;28;20223;-65
2021/06/27 13:31:34;;;;;;;2.38;2.17;;;;;;;;;;5093347;28;20287;-69
2021/06/27 13:34:03;;;;;;;2.38;2.17;;;;;;;;;;5091018;28;20253;-70
2021/06/27 13:36:33;;;;;;;2.90;2.70;;;;;;;;;;5084574;28;20350;-68
2021/06/27 13:39:02;;;;;;;2.85;2.65;;;;;;;;;;5092789;28;20188;-70
2021/06/27 13:41:32;;;;;;;2.70;2.50;;;;;;;;;;5093170;28;20199;-67
2021/06/27 13:44:01;;;;;;;2.58;2.45;;;;;;;;;;5093153;28;20295;-69
2021/06/27 13:46:29;;;;;;;3.38;2.88;;;;;;;;;;5093100;28;20227;-68
2021/06/27 13:48:58;;;;;;;3.40;3.10;;;;;;;;;;5092861;28;20232;-68
2021/06/27 13:51:26;;;;;;;2.85;2.65;;;;;;;;;;5093130;28;20243;-68
2021/06/27 13:53:56;;;;;;;3.00;2.80;;;;;;;;;;5092823;28;20204;-71
2021/06/27 13:56:26;;;;;;;3.05;2.85;;;;;;;;;;5076001;28;20294;-69
2021/06/27 13:58:55;;;;;;;3.20;2.90;;;;;;;;;;5078825;28;20223;-70
2021/06/27 14:01:26;;;;;;;3.42;3.13;;;;;;;;;;5082055;28;20201;-70
2021/06/27 14:03:55;;;;;;;3.35;3.15;;;;;;;;;;5076064;28;20199;-71
2021/06/27 14:06:25;;;;;;;3.40;3.10;;;;;;;;;;5079523;28;20208;-70
2021/06/27 14:08:53;;;;;;;3.42;3.22;;;;;;;;;;5090505;28;20311;-71
2021/06/27 14:11:23;;;;;;;3.20;3.00;;;;;;;;;;5093074;28;20216;-70